Terminal Aerodrome Forecast
Issued by NWS

Home | Current Version | Previous Version | Text Only | Print | Product List | Glossary On
Versions: 1 2 3 4 5 6 7 8 9 10 11 12
000
FTUS42 TJSJ 221140
TAFKPK
TAF
TKPK 221140Z 2212/2312 00000KT P6SM FEW020 SCT045
     FM221400 05006KT P6SM SCT025
     FM221700 07008KT P6SM FEW020
     FM222300 09004KT P6SM FEW025
      AMD NOT SKED 2302/2311=

USA.gov is the U.S. government's official web portal to all federal, state and local government web resources and services.